Time;durP1;ratioP1;P1;durP2;ratioP2;P2;SDS_P1;SDS_P2;PMS_P1;PMS_P2;Temp;Humidity;BMP_temperature;BMP_pressure;BME280_temperature;BME280_humidity;BME280_pressure;Samples;Min_cycle;Max_cycle;Signal;HPM_P1;HPM_P2
2022/09/05 00:00:16;;;;;;;13.72;10.15;;;;;;;13.15;100.00;99902.97;4409924;79;20968;-83
2022/09/05 00:06:41;;;;;;;12.65;9.85;;;;;;;13.11;100.00;99899.36;4425117;79;21015;-84
2022/09/05 00:13:03;;;;;;;16.55;10.60;;;;;;;12.98;100.00;99899.34;4413883;79;20988;-84
2022/09/05 00:19:40;;;;;;;13.48;10.48;;;;;;;12.95;100.00;99898.67;4424080;79;20980;-84
2022/09/05 00:26:32;;;;;;;14.60;10.32;;;;;;;12.97;100.00;99902.42;4413158;78;21058;-84
2022/09/05 00:33:00;;;;;;;16.12;10.82;;;;;;;12.96;100.00;99897.53;4256006;80;21062;-84
2022/09/05 00:39:35;;;;;;;11.90;9.58;;;;;;;12.87;100.00;99890.70;4282978;81;21020;-83
2022/09/05 00:46:09;;;;;;;15.70;11.43;;;;;;;12.78;100.00;99886.05;4334696;80;21166;-83
2022/09/05 00:52:41;;;;;;;16.62;10.15;;;;;;;12.73;100.00;99879.48;4261099;82;21112;-84
2022/09/05 00:59:25;;;;;;;13.70;9.58;;;;;;;12.64;100.00;99881.09;4394374;79;21074;-84
2022/09/05 01:06:34;;;;;;;13.22;10.50;;;;;;;12.54;100.00;99878.37;4361629;79;21013;-84
2022/09/05 01:13:06;;;;;;;16.20;11.65;;;;;;;12.52;100.00;99887.58;4409622;79;20996;-84
2022/09/05 01:19:52;;;;;;;13.05;9.95;;;;;;;12.46;100.00;99877.27;4414348;79;21048;-84
2022/09/05 01:26:32;;;;;;;14.80;10.50;;;;;;;12.30;100.00;99882.88;4403053;79;21051;-84
2022/09/05 01:33:28;;;;;;;16.77;10.03;;;;;;;12.23;100.00;99883.33;4427930;78;21027;-83
2022/09/05 01:40:13;;;;;;;15.60;10.90;;;;;;;12.17;100.00;99890.24;4403246;79;21096;-84
2022/09/05 01:47:00;;;;;;;14.25;10.38;;;;;;;12.13;100.00;99895.69;4409519;79;21063;-84
2022/09/05 01:53:45;;;;;;;14.33;9.83;;;;;;;12.08;100.00;99890.48;4410951;79;22075;-84
2022/09/05 02:00:14;;;;;;;13.95;10.25;;;;;;;12.04;100.00;99892.95;4402334;78;21065;-84
2022/09/05 02:06:58;;;;;;;14.20;10.63;;;;;;;11.91;100.00;99892.31;4408726;79;21101;-84
2022/09/05 02:13:30;;;;;;;14.28;11.48;;;;;;;11.84;100.00;99894.91;4401638;79;21516;-82
2022/09/05 02:19:54;;;;;;;16.02;11.57;;;;;;;11.77;100.00;99888.48;4415594;79;21588;-81
2022/09/05 02:26:31;;;;;;;15.93;10.78;;;;;;;11.73;100.00;99890.38;4408491;79;21529;-82
2022/09/05 02:33:31;;;;;;;15.07;10.30;;;;;;;11.70;100.00;99893.23;4414274;79;21039;-82
2022/09/05 02:40:17;;;;;;;12.40;9.90;;;;;;;11.54;100.00;99893.84;4417142;79;22063;-81
2022/09/05 02:46:58;;;;;;;16.37;10.38;;;;;;;11.46;100.00;99900.35;4423666;78;21099;-83
2022/09/05 02:53:21;;;;;;;13.38;9.58;;;;;;;11.45;100.00;99895.23;4405660;79;21052;-82
2022/09/05 02:59:56;;;;;;;14.25;10.30;;;;;;;11.33;100.00;99892.03;4406825;79;21037;-82
2022/09/05 03:06:59;;;;;;;13.08;9.00;;;;;;;11.25;100.00;99888.09;4250279;82;21071;-82
2022/09/05 03:13:50;;;;;;;14.55;10.53;;;;;;;11.08;100.00;99887.36;4267864;81;21060;-82
2022/09/05 03:20:50;;;;;;;13.58;10.53;;;;;;;11.04;100.00;99888.41;4325286;80;22083;-82
2022/09/05 03:27:44;;;;;;;11.30;9.38;;;;;;;11.10;100.00;99900.70;4409640;79;21008;-83
2022/09/05 03:34:28;;;;;;;16.35;9.65;;;;;;;11.06;100.00;99903.36;4414280;79;21036;-83
2022/09/05 03:40:56;;;;;;;12.07;10.03;;;;;;;10.98;100.00;99900.23;4410213;79;21019;-83
2022/09/05 03:47:49;;;;;;;12.85;10.82;;;;;;;11.00;100.00;99901.23;4384133;79;21667;-82
2022/09/05 03:54:27;;;;;;;9.35;8.33;;;;;;;11.04;100.00;99907.02;4399133;79;21000;-82
2022/09/05 04:01:16;;;;;;;12.60;9.88;;;;;;;11.22;100.00;99908.00;4396623;79;21086;-81
2022/09/05 04:07:52;;;;;;;14.28;11.90;;;;;;;11.35;100.00;99914.41;4398245;79;21070;-82
2022/09/05 04:14:35;;;;;;;14.40;12.05;;;;;;;11.41;100.00;99924.50;4402096;79;21164;-82
2022/09/05 04:21:09;;;;;;;15.45;12.25;;;;;;;11.36;100.00;99924.20;4396924;79;21023;-83
2022/09/05 04:27:40;;;;;;;11.25;8.88;;;;;;;11.25;100.00;99927.27;4410995;79;21156;-83
2022/09/05 04:34:14;;;;;;;12.98;10.23;;;;;;;11.21;100.00;99942.05;4420901;78;21035;-82
2022/09/05 04:41:05;;;;;;;16.97;12.35;;;;;;;11.27;100.00;99952.39;4404255;79;21070;-83
2022/09/05 04:47:32;;;;;;;15.30;12.78;;;;;;;11.24;100.00;99959.16;4377676;79;20968;-83
2022/09/05 04:54:31;;;;;;;19.37;13.60;;;;;;;11.17;100.00;99963.88;4294159;81;21607;-82
2022/09/05 05:01:02;;;;;;;17.05;13.35;;;;;;;11.14;100.00;99975.56;4261738;82;21048;-82
2022/09/05 05:07:44;;;;;;;18.32;12.75;;;;;;;11.21;100.00;99987.27;4403154;79;21065;-81
2022/09/05 05:14:21;;;;;;;16.60;12.53;;;;;;;11.29;100.00;99995.30;4413427;79;22297;-81
2022/09/05 05:20:55;;;;;;;17.32;13.28;;;;;;;11.40;100.00;100004.56;4404011;79;21627;-84
2022/09/05 05:27:39;;;;;;;16.05;12.40;;;;;;;11.53;100.00;100005.26;4412182;79;21440;-82
2022/09/05 05:34:02;;;;;;;16.95;13.05;;;;;;;11.70;100.00;100013.15;4405554;79;20987;-82
2022/09/05 05:40:30;;;;;;;16.00;11.80;;;;;;;11.91;100.00;100007.55;4394749;79;21096;-82
2022/09/05 05:47:26;;;;;;;;;;;;;;;12.12;100.00;100005.23;4427670;79;20995;-83
2022/09/05 05:54:02;;;;;;;17.07;12.70;;;;;;;12.32;100.00;100009.57;4416546;79;20175;-83
2022/09/05 06:00:56;;;;;;;15.50;12.78;;;;;;;12.51;100.00;100023.89;4403658;79;21135;-82
2022/09/05 06:08:02;;;;;;;15.28;13.00;;;;;;;12.71;100.00;100017.78;4406265;79;21645;-83
2022/09/05 06:14:53;;;;;;;17.00;13.62;;;;;;;12.82;100.00;100020.14;4414663;79;21062;-83
2022/09/05 06:21:50;;;;;;;13.83;12.20;;;;;;;13.01;100.00;100025.63;4412380;79;21029;-82
2022/09/05 06:29:03;;;;;;;16.62;12.28;;;;;;;13.32;100.00;100028.13;4418389;79;21059;-83
2022/09/05 06:35:42;;;;;;;16.12;11.40;;;;;;;13.63;100.00;100024.50;4429280;79;21064;-82
2022/09/05 06:49:27;;;;;;;16.45;11.97;;;;;;;14.15;100.00;100031.92;4390334;79;21087;-83
2022/09/05 06:56:09;;;;;;;14.18;11.15;;;;;;;14.39;100.00;100043.08;4397669;79;21421;-83
2022/09/05 07:02:50;;;;;;;18.52;11.73;;;;;;;14.57;100.00;100049.01;4396159;79;22023;-82
2022/09/05 07:09:41;;;;;;;12.43;10.03;;;;;;;14.83;100.00;100046.75;4423809;78;21135;-84
2022/09/05 07:16:29;;;;;;;16.20;11.83;;;;;;;15.12;100.00;100051.36;4422220;79;21142;-82
2022/09/05 07:23:16;;;;;;;15.58;10.60;;;;;;;15.37;100.00;100054.56;4395429;79;21010;-85
2022/09/05 07:29:52;;;;;;;14.47;9.85;;;;;;;15.60;100.00;100055.17;4421885;79;21503;-84
2022/09/05 07:36:20;;;;;;;10.65;8.95;;;;;;;15.89;100.00;100045.70;4400809;79;21093;-85
2022/09/05 07:42:59;;;;;;;12.58;8.93;;;;;;;16.09;100.00;100052.53;4414683;79;21964;-84
2022/09/05 07:49:21;;;;;;;10.85;8.73;;;;;;;16.35;100.00;100053.67;4417591;79;21484;-84
2022/09/05 07:55:56;;;;;;;13.48;7.70;;;;;;;16.67;100.00;100052.64;4373856;79;21049;-84
2022/09/05 08:02:17;;;;;;;9.65;7.05;;;;;;;17.11;100.00;100056.50;4400924;79;21021;-85
2022/09/05 08:15:28;;;;;;;7.00;5.65;;;;;;;18.03;99.61;100053.13;4340314;79;20995;-84
2022/09/05 08:21:53;;;;;;;6.62;4.60;;;;;;;18.40;98.09;100055.62;4416335;79;20991;-84
2022/09/05 08:28:38;;;;;;;6.80;5.17;;;;;;;18.65;95.52;100051.38;4349145;80;21969;-84
2022/09/05 08:35:26;;;;;;;5.10;3.73;;;;;;;18.87;95.97;100051.44;4252543;81;21902;-85
2022/09/05 08:42:26;;;;;;;6.92;4.42;;;;;;;19.11;94.61;100039.41;4250532;82;22180;-85
2022/09/05 08:49:31;;;;;;;14.65;4.65;;;;;;;19.14;90.28;100037.20;4415983;78;21048;-86
2022/09/05 08:56:30;;;;;;;8.33;4.17;;;;;;;19.38;91.34;100034.88;4399798;79;22020;-85
2022/09/05 09:03:27;;;;;;;5.87;4.42;;;;;;;19.63;90.60;100026.33;4199488;83;21102;-84
2022/09/05 09:10:05;;;;;;;6.10;3.77;;;;;;;19.93;82.80;100027.83;4313606;79;21549;-85
2022/09/05 09:16:54;;;;;;;5.92;3.95;;;;;;;20.49;87.62;100015.28;4420138;79;21086;-85
2022/09/05 09:23:45;;;;;;;5.03;4.17;;;;;;;21.14;86.69;100014.80;4386049;79;21531;-85
2022/09/05 09:30:06;;;;;;;4.92;4.10;;;;;;;21.81;84.96;100017.88;4417236;79;21013;-86
2022/09/05 09:44:05;;;;;;;7.28;3.85;;;;;;;22.98;80.23;100001.11;4391782;79;21000;-85
2022/09/05 09:50:59;;;;;;;5.87;3.62;;;;;;;23.38;72.13;100000.39;4121038;84;21064;-83
2022/09/05 09:57:52;;;;;;;4.58;3.60;;;;;;;23.21;71.42;100000.95;4092096;82;21036;-85
2022/09/05 10:04:39;;;;;;;4.70;3.58;;;;;;;23.96;73.95;99993.67;4403325;79;21442;-87
2022/09/05 10:11:13;;;;;;;5.10;3.33;;;;;;;24.49;61.26;99977.58;4398274;79;21058;-86
2022/09/05 10:17:53;;;;;;;5.60;3.15;;;;;;;25.21;67.69;99974.33;4415626;79;21085;-86
2022/09/05 10:24:57;;;;;;;5.75;2.90;;;;;;;25.94;66.54;99980.83;4382194;79;21013;-86
2022/09/05 10:31:45;;;;;;;4.60;2.80;;;;;;;26.15;66.23;99977.91;4302477;79;55155;-87
2022/09/05 10:38:27;;;;;;;5.28;2.87;;;;;;;26.54;64.13;99975.03;4072929;82;21074;-87
2022/09/05 10:44:57;;;;;;;4.12;2.52;;;;;;;27.04;62.58;99964.23;4245053;81;21064;-86
2022/09/05 10:58:29;;;;;;;7.22;3.35;;;;;;;27.43;59.54;99953.58;4288651;81;20983;-86
2022/09/05 11:05:15;;;;;;;3.85;3.02;;;;;;;27.70;58.84;99953.45;4279535;81;20976;-87
2022/09/05 11:11:45;;;;;;;4.35;2.83;;;;;;;27.58;57.13;99954.53;4237007;80;37179;-87
2022/09/05 11:18:11;;;;;;;5.03;2.70;;;;;;;27.36;56.03;99948.89;4224183;83;21022;-87
2022/09/05 11:25:02;;;;;;;8.78;3.25;;;;;;;27.53;54.51;99942.48;4236649;82;21050;-88
2022/09/05 11:31:28;;;;;;;5.70;3.17;;;;;;;27.13;54.43;99939.57;4218005;82;38403;-87
2022/09/05 11:38:13;;;;;;;6.80;3.55;;;;;;;26.66;53.03;99943.30;4128922;84;21015;-87
2022/09/05 11:45:06;;;;;;;6.17;3.27;;;;;;;26.09;52.13;99933.44;4127984;84;21970;-89
2022/09/05 11:52:06;;;;;;;5.37;3.12;;;;;;;25.59;52.32;99932.99;4126322;84;22024;-85
2022/09/05 11:58:49;;;;;;;6.37;3.62;;;;;;;25.05;52.01;99921.22;4129988;84;21098;-87
2022/09/05 12:05:32;;;;;;;4.87;2.85;;;;;;;24.36;51.25;99914.59;4125811;83;21070;-86
2022/09/05 12:12:30;;;;;;;4.50;3.02;;;;;;;23.91;51.27;99916.70;4121994;84;21114;-86
2022/09/05 12:26:22;;;;;;;4.83;3.02;;;;;;;22.99;51.77;99916.91;4066045;83;21000;-85
2022/09/05 12:33:06;;;;;;;4.17;3.08;;;;;;;22.66;50.07;99884.61;4161573;83;21059;-85
2022/09/05 12:39:45;;;;;;;3.62;3.20;;;;;;;22.46;50.92;99902.59;4092379;84;21006;-85
2022/09/05 12:46:32;;;;;;;5.35;3.35;;;;;;;22.59;51.84;99900.73;4129356;83;20995;-85
2022/09/05 12:53:09;;;;;;;3.77;2.80;;;;;;;22.64;51.55;99892.66;4153196;83;21016;-85
2022/09/05 12:59:29;;;;;;;6.50;3.20;;;;;;;22.49;51.82;99885.02;4170415;83;23277;-84
2022/09/05 13:06:14;;;;;;;5.35;3.15;;;;;;;22.36;51.88;99881.31;4163120;83;21715;-84
2022/09/05 13:12:46;;;;;;;4.20;3.05;;;;;;;22.25;51.62;99884.36;4177292;82;21088;-84
2022/09/05 13:19:12;;;;;;;5.30;3.40;;;;;;;22.07;51.77;99881.75;4179622;83;22037;-86
2022/09/05 13:25:35;;;;;;;5.37;3.65;;;;;;;21.86;51.90;99878.82;4195705;83;21061;-84
2022/09/05 13:32:03;;;;;;;3.90;2.92;;;;;;;21.79;51.36;99873.97;4170150;83;22385;-84
2022/09/05 13:45:17;;;;;;;4.10;3.33;;;;;;;21.79;51.40;99869.20;4160297;84;20144;-84
2022/09/05 13:52:12;;;;;;;3.77;3.10;;;;;;;21.67;51.33;99867.03;4158804;82;21586;-84
2022/09/05 13:58:49;;;;;;;6.72;3.58;;;;;;;21.59;51.40;99864.20;4005597;88;21123;-84
2022/09/05 14:05:25;;;;;;;6.00;3.55;;;;;;;21.59;51.46;99863.61;3975356;86;21118;-83
2022/09/05 14:12:28;;;;;;;3.37;2.70;;;;;;;21.34;51.63;99870.25;3994768;88;21082;-84
2022/09/05 14:25:36;;;;;;;5.17;3.02;;;;;;;21.16;52.40;99862.02;3993988;87;21529;-85
2022/09/05 14:32:25;;;;;;;4.33;3.00;;;;;;;21.20;52.88;99856.59;4002561;87;21119;-84
2022/09/05 14:39:01;;;;;;;5.62;3.30;;;;;;;21.21;52.94;99853.19;3986493;86;21139;-85
2022/09/05 14:45:42;;;;;;;5.05;3.55;;;;;;;21.18;53.18;99845.09;4005405;86;21106;-85
2022/09/05 14:51:49;;;;;;;3.77;3.25;;;;;;;21.12;53.07;99843.21;3979409;88;21444;-85
2022/09/05 14:57:51;;;;;;;6.55;3.75;;;;;;;20.82;53.35;99837.14;4004839;87;21590;-84
2022/09/05 15:03:53;;;;;;;6.12;3.50;;;;;;;20.74;53.57;99838.47;4007801;87;21049;-86
2022/09/05 15:10:29;;;;;;;5.17;3.50;;;;;;;20.72;53.79;99830.38;4000938;87;21043;-84
2022/09/05 15:16:37;;;;;;;4.87;3.00;;;;;;;20.67;53.91;99826.05;3993646;87;21060;-85
2022/09/05 15:22:50;;;;;;;4.17;3.15;;;;;;;20.60;53.86;99824.00;4024751;86;21082;-85
2022/09/05 15:28:51;;;;;;;5.40;3.15;;;;;;;20.47;54.33;99823.80;3991711;88;21091;-86
2022/09/05 15:34:57;;;;;;;4.28;2.80;;;;;;;20.50;55.02;99831.92;4002909;87;21004;-84
2022/09/05 15:41:06;;;;;;;5.17;3.30;;;;;;;20.53;54.55;99826.28;3991586;87;21156;-85
2022/09/05 15:47:09;;;;;;;5.53;3.30;;;;;;;20.56;54.59;99824.67;4003047;88;21603;-85
2022/09/05 15:53:36;;;;;;;3.98;3.08;;;;;;;20.55;54.58;99818.31;4004721;87;21166;-85
2022/09/05 15:59:46;;;;;;;;;;;;;;;20.50;54.80;99815.23;4006942;87;21102;-84
2022/09/05 16:06:01;;;;;;;6.47;3.27;;;;;;;20.33;56.19;99810.12;4003056;88;20675;-85
2022/09/05 16:12:08;;;;;;;6.47;3.30;;;;;;;20.15;56.18;99799.26;4001555;86;21694;-85
2022/09/05 16:18:40;;;;;;;4.58;3.37;;;;;;;19.94;56.42;99792.60;3989951;87;50819;-84
2022/09/05 16:24:47;;;;;;;6.75;3.70;;;;;;;19.80;56.68;99795.58;3971265;87;21050;-85
2022/09/05 16:30:48;;;;;;;;;;;;;;;19.68;57.00;99790.59;3977990;87;21043;-85
2022/09/05 16:37:11;;;;;;;9.03;3.75;;;;;;;19.57;57.70;99787.16;3990444;88;20141;-85
2022/09/05 16:43:40;;;;;;;5.60;3.60;;;;;;;19.48;57.98;99782.69;3989816;88;21007;-85
2022/09/05 16:50:06;;;;;;;7.83;4.05;;;;;;;19.36;58.64;99790.17;3959768;87;21123;-85
2022/09/05 16:56:53;;;;;;;9.28;4.53;;;;;;;19.19;59.16;99791.73;3925843;88;21026;-85
2022/09/05 17:03:31;;;;;;;5.65;4.10;;;;;;;18.88;59.70;99788.10;3980742;87;21113;-85
2022/09/05 17:09:50;;;;;;;7.28;4.15;;;;;;;18.66;61.03;99790.29;3968033;88;21071;-84
2022/09/05 17:15:52;;;;;;;6.78;4.03;;;;;;;18.48;61.07;99782.70;3976031;88;21096;-86
2022/09/05 17:22:17;;;;;;;4.85;3.70;;;;;;;18.31;62.18;99791.12;3962957;88;21657;-86
2022/09/05 17:28:46;;;;;;;5.47;3.90;;;;;;;18.15;62.48;99801.33;3965003;88;21029;-85
2022/09/05 17:42:01;;;;;;;7.10;4.05;;;;;;;17.85;64.21;99802.53;3973733;87;21044;-85
2022/09/05 17:48:03;;;;;;;7.53;4.40;;;;;;;17.73;63.95;99809.12;3966564;87;21545;-84
2022/09/05 17:54:15;;;;;;;7.87;5.37;;;;;;;17.59;64.00;99811.34;3835456;87;9999640;-84
2022/09/05 18:00:48;;;;;;;9.90;4.80;;;;;;;17.48;64.55;99816.73;3983034;87;21041;-85
2022/09/05 18:06:51;;;;;;;8.28;4.75;;;;;;;17.45;64.59;99825.23;3856972;87;21048;-85
2022/09/05 18:13:00;;;;;;;7.53;5.05;;;;;;;17.35;64.91;99835.73;3973722;87;21111;-85
2022/09/05 18:19:21;;;;;;;7.70;5.03;;;;;;;17.33;65.41;99836.72;3997354;88;21043;-85
2022/09/05 18:25:31;;;;;;;8.75;5.47;;;;;;;17.20;65.90;99839.70;3875721;88;21092;-85
2022/09/05 18:31:49;;;;;;;10.13;7.20;;;;;;;17.10;66.34;99837.77;3966285;88;21100;-86
2022/09/05 18:38:08;;;;;;;13.83;7.53;;;;;;;16.96;67.00;99849.61;3889359;90;21639;-85
2022/09/05 18:44:11;;;;;;;13.62;6.40;;;;;;;16.89;67.02;99849.64;3860471;88;21040;-84
2022/09/05 18:50:18;;;;;;;12.43;6.78;;;;;;;16.85;67.19;99850.83;3972986;88;21766;-84
2022/09/05 18:56:31;;;;;;;13.10;5.70;;;;;;;16.79;67.52;99854.57;3963231;88;21696;-85
2022/09/05 19:02:43;;;;;;;11.48;5.87;;;;;;;16.68;67.61;99856.55;3978342;88;21116;-85
2022/09/05 19:08:57;;;;;;;7.65;5.70;;;;;;;16.57;68.06;99864.66;3974913;88;21476;-85
2022/09/05 19:15:08;;;;;;;12.10;6.60;;;;;;;16.49;68.54;99863.06;3975807;88;21074;-85
2022/09/05 19:21:20;;;;;;;11.33;5.83;;;;;;;16.39;68.66;99855.50;3965880;87;21155;-84
2022/09/05 19:27:21;;;;;;;10.82;6.15;;;;;;;16.27;68.87;99855.89;3950531;88;21060;-84
2022/09/05 19:33:30;;;;;;;10.95;6.92;;;;;;;16.15;69.17;99853.48;3957243;88;21024;-85
2022/09/05 19:39:47;;;;;;;11.73;6.42;;;;;;;16.02;69.36;99841.23;3969241;87;21569;-84
2022/09/05 19:45:48;;;;;;;10.32;6.87;;;;;;;15.89;69.57;99838.04;3974317;87;21035;-84
2022/09/05 19:51:52;;;;;;;11.25;6.53;;;;;;;15.76;69.48;99829.90;3979779;88;21156;-84
2022/09/05 19:58:14;;;;;;;16.10;6.85;;;;;;;15.61;69.58;99830.43;3972496;88;21115;-84
2022/09/05 20:04:17;;;;;;;14.00;6.20;;;;;;;15.50;69.42;99826.83;3971348;88;21068;-84
2022/09/05 20:10:32;;;;;;;11.70;6.47;;;;;;;15.40;69.31;99826.21;3946948;88;21040;-83
2022/09/05 20:16:39;;;;;;;11.35;6.22;;;;;;;15.29;69.30;99817.64;3958458;88;21028;-84
2022/09/05 20:22:50;;;;;;;;;;;;;;;15.19;69.21;99813.64;3878420;90;21053;-84
2022/09/05 20:29:01;;;;;;;10.13;5.50;;;;;;;15.02;69.43;99817.09;3856600;90;20130;-84
2022/09/05 20:35:08;;;;;;;9.93;5.72;;;;;;;14.94;69.41;99820.20;3874186;90;21055;-84
2022/09/05 20:41:21;;;;;;;11.30;5.62;;;;;;;14.81;69.34;99821.68;3961038;87;21057;-85
2022/09/05 20:47:34;;;;;;;8.53;5.20;;;;;;;14.47;69.49;99778.30;3984540;88;21032;-84
2022/09/05 20:53:51;;;;;;;9.13;4.78;;;;;;;14.65;69.63;99811.52;3975019;88;21629;-84
2022/09/05 20:59:58;;;;;;;12.50;5.08;;;;;;;14.49;69.52;99810.98;3969059;88;21108;-84
2022/09/05 21:06:29;;;;;;;9.05;5.58;;;;;;;14.32;70.02;99819.88;3960563;88;21126;-84
2022/09/05 21:12:47;;;;;;;7.42;4.65;;;;;;;14.19;70.31;99817.96;3972930;87;22096;-85
2022/09/05 21:18:50;;;;;;;11.00;5.08;;;;;;;13.99;70.52;99823.47;3889348;90;21087;-84
2022/09/05 21:25:23;;;;;;;9.63;5.22;;;;;;;13.82;70.96;99821.32;3961547;88;21570;-84
2022/09/05 21:31:31;;;;;;;7.58;4.85;;;;;;;13.74;71.56;99819.08;3964938;88;21227;-84
2022/09/05 21:37:56;;;;;;;6.42;4.53;;;;;;;13.70;72.08;99825.71;3988508;87;21080;-85
2022/09/05 21:44:04;;;;;;;9.45;4.78;;;;;;;13.74;72.96;99817.70;3971722;88;21094;-84
2022/09/05 21:50:07;;;;;;;10.53;5.60;;;;;;;13.75;73.40;99821.26;3970089;88;21084;-84
2022/09/05 21:56:19;;;;;;;10.15;5.50;;;;;;;13.75;73.57;99826.76;3960177;87;21109;-85
2022/09/05 22:02:30;;;;;;;14.40;5.37;;;;;;;13.76;73.70;99823.63;3981816;88;21600;-85
2022/09/05 22:08:32;;;;;;;11.30;5.92;;;;;;;13.71;73.99;99814.33;3967121;88;21505;-84
2022/09/05 22:14:34;;;;;;;11.88;4.60;;;;;;;13.70;74.31;99817.45;3967966;87;21100;-84
2022/09/05 22:20:45;;;;;;;12.85;5.53;;;;;;;13.67;75.27;99816.84;3969614;87;21046;-84
2022/09/05 22:27:10;;;;;;;11.80;5.83;;;;;;;13.65;75.04;99817.78;3978495;87;21016;-85
2022/09/05 22:33:12;;;;;;;9.53;5.47;;;;;;;13.39;75.74;99819.24;3977601;88;21059;-85
2022/09/05 22:39:14;;;;;;;10.63;6.03;;;;;;;13.30;76.08;99790.64;3969033;87;21172;-83
2022/09/05 22:45:15;;;;;;;8.75;5.33;;;;;;;13.31;76.37;99821.08;3968335;88;21276;-84
2022/09/05 22:51:16;;;;;;;7.15;4.90;;;;;;;13.14;76.49;99816.14;3942233;87;21573;-84
2022/09/05 22:57:18;;;;;;;8.23;5.15;;;;;;;13.09;76.49;99817.06;3971328;88;21165;-84
2022/09/05 23:03:21;;;;;;;11.22;5.45;;;;;;;13.01;76.65;99812.63;3961481;87;21666;-82
2022/09/05 23:09:23;;;;;;;11.95;5.12;;;;;;;12.95;76.24;99805.23;3964884;87;21695;-84
2022/09/05 23:15:28;;;;;;;9.13;5.45;;;;;;;12.68;75.92;99798.75;3970812;87;21103;-83
2022/09/05 23:21:33;;;;;;;13.13;5.70;;;;;;;12.60;76.13;99787.67;3960195;88;21613;-84
2022/09/05 23:27:36;;;;;;;12.55;5.40;;;;;;;12.59;76.77;99786.06;3946529;88;21078;-84
2022/09/05 23:33:40;;;;;;;11.00;6.10;;;;;;;12.40;76.97;99777.14;3969446;88;21033;-84
2022/09/05 23:39:42;;;;;;;9.03;5.20;;;;;;;12.32;77.31;99767.97;3880986;90;21083;-83
2022/09/05 23:45:49;;;;;;;11.20;5.58;;;;;;;12.23;77.07;99769.41;3956535;88;21072;-83
2022/09/05 23:51:50;;;;;;;8.65;4.92;;;;;;;12.12;76.90;99772.55;3970370;88;21640;-84
2022/09/05 23:57:56;;;;;;;9.80;4.85;;;;;;;12.08;77.47;99775.80;3963626;88;21096;-83
